Time;durP1;ratioP1;P1;durP2;ratioP2;P2;SDS_P1;SDS_P2;PMS_P1;PMS_P2;Temp;Humidity;BMP_temperature;BMP_pressure;BME280_temperature;BME280_humidity;BME280_pressure;Samples;Min_cycle;Max_cycle;Signal;HPM_P1;HPM_P2
2022/11/20 00:00:24;;;;;;;6.27;4.27;;;;;;;;;;4961595;28;20281;-63
2022/11/20 00:02:51;;;;;;;2.67;2.47;;;;;;;;;;4979462;28;20228;-64
2022/11/20 00:05:19;;;;;;;3.03;2.70;;;;;;;;;;4957997;28;20209;-62
2022/11/20 00:07:46;;;;;;;4.30;3.90;;;;;;;;;;4966716;28;20337;-63
2022/11/20 00:10:13;;;;;;;3.87;2.80;;;;;;;;;;4957767;28;20211;-62
2022/11/20 00:12:41;;;;;;;3.03;2.83;;;;;;;;;;4964554;28;20324;-63
2022/11/20 00:15:09;;;;;;;4.33;2.60;;;;;;;;;;4980421;28;20302;-65
2022/11/20 00:17:37;;;;;;;3.50;3.20;;;;;;;;;;4978881;28;20234;-64
2022/11/20 00:20:04;;;;;;;3.20;2.90;;;;;;;;;;4985013;28;20597;-64
2022/11/20 00:22:32;;;;;;;3.30;3.10;;;;;;;;;;4983512;28;20334;-64
2022/11/20 00:24:59;;;;;;;4.47;3.00;;;;;;;;;;4986141;28;20303;-64
2022/11/20 00:27:27;;;;;;;3.90;3.47;;;;;;;;;;4968694;28;20254;-63
2022/11/20 00:29:54;;;;;;;3.43;3.13;;;;;;;;;;4969236;28;20291;-64
2022/11/20 00:32:22;;;;;;;4.03;3.63;;;;;;;;;;4984597;28;20232;-64
2022/11/20 00:34:49;;;;;;;3.60;3.30;;;;;;;;;;4968036;28;20212;-63
2022/11/20 00:37:17;;;;;;;5.23;4.17;;;;;;;;;;4963854;28;20320;-64
2022/11/20 00:39:44;;;;;;;4.30;3.90;;;;;;;;;;4976491;28;20227;-63
2022/11/20 00:42:11;;;;;;;4.47;3.90;;;;;;;;;;4962031;28;20318;-64
2022/11/20 00:44:39;;;;;;;4.60;4.20;;;;;;;;;;4963738;28;21001;-64
2022/11/20 00:47:06;;;;;;;4.60;4.20;;;;;;;;;;4961158;28;20210;-62
2022/11/20 00:49:33;;;;;;;4.90;4.40;;;;;;;;;;4957697;28;20678;-64
2022/11/20 00:52:01;;;;;;;10.70;7.10;;;;;;;;;;4965019;28;20227;-62
2022/11/20 00:54:28;;;;;;;7.47;4.97;;;;;;;;;;4968523;28;20302;-65
2022/11/20 00:56:56;;;;;;;8.00;6.07;;;;;;;;;;4966246;28;20224;-63
2022/11/20 00:59:23;;;;;;;7.87;5.90;;;;;;;;;;4966349;28;20253;-62
2022/11/20 01:01:51;;;;;;;6.73;4.90;;;;;;;;;;4966964;28;20809;-62
2022/11/20 01:04:18;;;;;;;6.03;4.73;;;;;;;;;;4964858;28;20210;-62
2022/11/20 01:06:45;;;;;;;5.27;4.80;;;;;;;;;;4963954;28;20978;-63
2022/11/20 01:09:14;;;;;;;5.50;4.60;;;;;;;;;;4970424;28;20310;-63
2022/11/20 01:11:45;;;;;;;5.53;4.40;;;;;;;;;;4958989;28;21064;-64
2022/11/20 01:14:14;;;;;;;6.07;4.90;;;;;;;;;;4986447;28;20212;-64
2022/11/20 01:16:42;;;;;;;5.80;5.10;;;;;;;;;;4981885;28;20525;-62
2022/11/20 01:19:11;;;;;;;4.50;4.10;;;;;;;;;;4981294;28;20665;-64
2022/11/20 01:21:44;;;;;;;5.27;4.50;;;;;;;;;;4981965;28;20230;-64
2022/11/20 01:24:13;;;;;;;5.00;4.50;;;;;;;;;;4976069;28;20387;-63
2022/11/20 01:26:44;;;;;;;5.83;4.50;;;;;;;;;;4959777;28;20303;-64
2022/11/20 01:29:13;;;;;;;4.73;4.33;;;;;;;;;;4961859;28;20223;-64
2022/11/20 01:31:41;;;;;;;4.60;4.00;;;;;;;;;;4955581;28;20227;-62
2022/11/20 01:34:11;;;;;;;5.53;4.03;;;;;;;;;;4961609;28;20298;-62
2022/11/20 01:36:39;;;;;;;5.23;4.23;;;;;;;;;;4963567;28;20203;-62
2022/11/20 01:39:08;;;;;;;6.40;4.50;;;;;;;;;;4969110;28;20306;-63
2022/11/20 01:44:23;;;;;;;5.30;3.70;;;;;;;;;;4990820;28;20658;-64
2022/11/20 01:46:50;;;;;;;4.40;3.97;;;;;;;;;;4972612;28;20340;-63
2022/11/20 01:49:25;;;;;;;4.20;3.67;;;;;;;;;;4977087;28;20203;-64
2022/11/20 01:51:57;;;;;;;3.60;3.30;;;;;;;;;;4972168;28;20226;-63
2022/11/20 01:54:27;;;;;;;4.33;3.93;;;;;;;;;;4973055;28;24514;-64
2022/11/20 01:56:56;;;;;;;3.97;3.57;;;;;;;;;;4961281;28;20298;-64
2022/11/20 01:59:25;;;;;;;4.10;3.73;;;;;;;;;;4958548;28;20741;-64
2022/11/20 02:01:52;;;;;;;4.20;3.80;;;;;;;;;;4963611;28;20250;-64
2022/11/20 02:04:20;;;;;;;4.10;3.80;;;;;;;;;;4965203;28;20211;-64
2022/11/20 02:06:49;;;;;;;4.47;4.07;;;;;;;;;;4961756;28;20207;-64
2022/11/20 02:09:17;;;;;;;4.57;3.70;;;;;;;;;;4965590;28;20211;-64
2022/11/20 02:11:45;;;;;;;4.87;3.70;;;;;;;;;;4986879;28;20238;-64
2022/11/20 02:14:12;;;;;;;4.33;3.87;;;;;;;;;;4961704;28;20204;-64
2022/11/20 02:16:43;;;;;;;3.80;3.50;;;;;;;;;;4970700;28;20367;-64
2022/11/20 02:19:17;;;;;;;4.17;3.77;;;;;;;;;;4971636;28;20204;-64
2022/11/20 02:21:48;;;;;;;4.33;3.93;;;;;;;;;;4976845;28;20398;-64
2022/11/20 02:24:17;;;;;;;4.27;3.80;;;;;;;;;;4977971;28;20334;-64
2022/11/20 02:26:47;;;;;;;4.70;3.43;;;;;;;;;;4982141;28;20211;-64
2022/11/20 02:29:16;;;;;;;4.63;3.53;;;;;;;;;;4976672;28;20298;-63
2022/11/20 02:31:44;;;;;;;3.80;3.50;;;;;;;;;;4970197;28;20405;-63
2022/11/20 02:34:11;;;;;;;4.90;3.70;;;;;;;;;;4969666;28;20406;-63
2022/11/20 02:36:40;;;;;;;5.80;4.00;;;;;;;;;;4972455;28;20216;-64
2022/11/20 02:39:08;;;;;;;3.60;3.23;;;;;;;;;;4965460;28;20295;-65
2022/11/20 02:41:36;;;;;;;4.87;3.93;;;;;;;;;;4965814;28;20238;-62
2022/11/20 02:44:04;;;;;;;5.57;4.00;;;;;;;;;;4984125;28;20208;-64
2022/11/20 02:46:32;;;;;;;4.27;3.87;;;;;;;;;;4967997;28;20481;-64
2022/11/20 02:49:00;;;;;;;3.90;3.60;;;;;;;;;;4959369;28;21280;-62
2022/11/20 02:51:28;;;;;;;3.70;3.40;;;;;;;;;;4972858;28;20331;-63
2022/11/20 02:53:55;;;;;;;3.67;3.00;;;;;;;;;;4974598;28;20208;-65
2022/11/20 02:56:23;;;;;;;4.90;3.10;;;;;;;;;;4974822;28;20302;-62
2022/11/20 02:58:50;;;;;;;4.43;2.90;;;;;;;;;;4993642;28;20294;-65
2022/11/20 03:01:17;;;;;;;3.10;2.90;;;;;;;;;;4972914;28;20238;-64
2022/11/20 03:03:45;;;;;;;2.97;2.77;;;;;;;;;;4966290;28;20523;-62
2022/11/20 03:06:12;;;;;;;3.07;2.77;;;;;;;;;;4957207;28;21570;-63
2022/11/20 03:08:40;;;;;;;2.57;2.40;;;;;;;;;;4961622;28;20303;-62
2022/11/20 03:11:07;;;;;;;3.67;3.13;;;;;;;;;;4960692;28;20306;-64
2022/11/20 03:13:35;;;;;;;3.27;2.97;;;;;;;;;;4962820;28;20215;-64
2022/11/20 03:16:07;;;;;;;3.70;2.67;;;;;;;;;;4963201;28;20606;-64
2022/11/20 03:18:34;;;;;;;3.47;3.17;;;;;;;;;;4969977;28;20215;-64
2022/11/20 03:21:02;;;;;;;4.63;2.90;;;;;;;;;;4963650;28;20452;-63
2022/11/20 03:23:30;;;;;;;4.77;3.17;;;;;;;;;;4960316;28;20291;-64
2022/11/20 03:26:08;;;;;;;3.63;2.70;;;;;;;;;;4960482;28;20203;-64
2022/11/20 03:28:36;;;;;;;2.87;2.67;;;;;;;;;;4958162;28;20250;-62
2022/11/20 03:31:07;;;;;;;3.97;2.90;;;;;;;;;;4957150;28;20211;-64
2022/11/20 03:33:36;;;;;;;3.13;2.83;;;;;;;;;;4981846;28;20224;-63
2022/11/20 03:36:05;;;;;;;2.93;2.50;;;;;;;;;;4960970;28;20306;-64
2022/11/20 03:38:32;;;;;;;2.93;2.63;;;;;;;;;;4959506;28;21427;-63
2022/11/20 03:41:08;;;;;;;2.80;2.60;;;;;;;;;;4953801;28;20289;-63
2022/11/20 03:43:35;;;;;;;3.20;2.90;;;;;;;;;;4957318;28;20207;-64
2022/11/20 03:46:03;;;;;;;2.53;2.33;;;;;;;;;;4958068;28;20212;-63
2022/11/20 03:48:30;;;;;;;2.87;2.67;;;;;;;;;;4954616;28;20203;-62
2022/11/20 03:51:08;;;;;;;2.57;2.37;;;;;;;;;;4961015;28;20295;-63
2022/11/20 03:53:35;;;;;;;2.53;2.33;;;;;;;;;;4952565;28;20632;-64
2022/11/20 03:56:03;;;;;;;2.97;2.50;;;;;;;;;;4956344;28;20210;-62
2022/11/20 03:58:30;;;;;;;2.40;2.20;;;;;;;;;;4956957;28;20234;-63
2022/11/20 04:00:58;;;;;;;2.93;2.37;;;;;;;;;;4980428;28;20223;-63
2022/11/20 04:03:26;;;;;;;2.87;2.57;;;;;;;;;;4963588;28;20227;-62
2022/11/20 04:05:53;;;;;;;2.60;2.40;;;;;;;;;;4979066;28;20208;-63
2022/11/20 04:08:20;;;;;;;3.37;2.80;;;;;;;;;;4954073;28;20227;-63
2022/11/20 04:10:48;;;;;;;2.83;2.37;;;;;;;;;;4960562;28;20281;-63
2022/11/20 04:13:15;;;;;;;2.83;2.63;;;;;;;;;;4968263;28;20327;-63
2022/11/20 04:15:43;;;;;;;4.03;2.90;;;;;;;;;;4961001;28;20692;-62
2022/11/20 04:18:10;;;;;;;2.80;2.60;;;;;;;;;;4961257;28;20211;-64
2022/11/20 04:20:38;;;;;;;3.07;2.87;;;;;;;;;;4955436;28;23184;-62
2022/11/20 04:23:05;;;;;;;4.40;2.77;;;;;;;;;;4990707;28;20223;-64
2022/11/20 04:25:32;;;;;;;3.03;2.83;;;;;;;;;;5005441;28;20231;-63
2022/11/20 04:28:00;;;;;;;3.10;2.90;;;;;;;;;;4966458;28;20214;-64
2022/11/20 04:30:27;;;;;;;3.17;2.80;;;;;;;;;;4980685;28;20246;-63
2022/11/20 04:32:54;;;;;;;3.00;2.50;;;;;;;;;;4971824;28;20234;-63
2022/11/20 04:35:21;;;;;;;3.20;2.90;;;;;;;;;;4964270;28;20957;-63
2022/11/20 04:37:51;;;;;;;2.80;2.60;;;;;;;;;;4960208;28;20204;-63
2022/11/20 04:40:19;;;;;;;2.93;2.70;;;;;;;;;;4958305;28;21297;-64
2022/11/20 04:42:46;;;;;;;3.00;2.70;;;;;;;;;;4963876;28;20868;-64
2022/11/20 04:45:14;;;;;;;2.83;2.63;;;;;;;;;;4962290;28;20247;-62
2022/11/20 04:47:41;;;;;;;3.37;3.00;;;;;;;;;;4958092;28;20228;-62
2022/11/20 04:50:09;;;;;;;3.10;2.90;;;;;;;;;;4957405;28;20645;-64
2022/11/20 04:52:36;;;;;;;3.37;3.00;;;;;;;;;;4980579;28;20655;-63
2022/11/20 04:55:04;;;;;;;2.80;2.60;;;;;;;;;;4969925;28;20216;-63
2022/11/20 04:57:32;;;;;;;3.17;2.90;;;;;;;;;;4960498;28;20206;-64
2022/11/20 04:59:59;;;;;;;3.70;3.40;;;;;;;;;;4986558;28;20804;-64
2022/11/20 05:02:28;;;;;;;3.63;3.33;;;;;;;;;;4967055;28;20733;-62
2022/11/20 05:04:55;;;;;;;3.73;3.07;;;;;;;;;;4969114;28;20670;-62
2022/11/20 05:07:22;;;;;;;3.13;2.83;;;;;;;;;;4972679;28;20215;-63
2022/11/20 05:09:49;;;;;;;4.00;2.87;;;;;;;;;;4959077;28;20235;-64
2022/11/20 05:12:17;;;;;;;4.27;3.20;;;;;;;;;;4990546;28;20781;-62
2022/11/20 05:14:45;;;;;;;3.33;3.07;;;;;;;;;;4965008;28;21109;-63
2022/11/20 05:17:12;;;;;;;3.37;3.00;;;;;;;;;;4982001;28;20211;-64
2022/11/20 05:19:40;;;;;;;3.23;2.93;;;;;;;;;;4960341;28;20704;-63
2022/11/20 05:22:07;;;;;;;5.40;3.40;;;;;;;;;;4961711;28;20373;-64
2022/11/20 05:24:34;;;;;;;3.00;2.60;;;;;;;;;;4970156;28;20246;-64
2022/11/20 05:27:02;;;;;;;3.13;2.80;;;;;;;;;;4965709;28;20616;-64
2022/11/20 05:29:29;;;;;;;3.50;3.20;;;;;;;;;;4969112;28;21283;-64
2022/11/20 05:31:56;;;;;;;3.20;3.00;;;;;;;;;;4965962;28;20517;-63
2022/11/20 05:34:24;;;;;;;3.40;3.10;;;;;;;;;;4986569;28;20754;-64
2022/11/20 05:36:51;;;;;;;3.43;3.10;;;;;;;;;;4969132;28;20580;-63
2022/11/20 05:39:18;;;;;;;3.20;2.90;;;;;;;;;;4974664;28;20218;-65
2022/11/20 05:42:29;;;;;;;3.50;3.20;;;;;;;;;;4964287;28;20714;-63
2022/11/20 05:44:34;;;;;;;3.27;2.97;;;;;;;;;;4978152;28;20214;-62
2022/11/20 05:47:01;;;;;;;3.83;3.03;;;;;;;;;;4974199;28;20250;-63
2022/11/20 05:49:28;;;;;;;3.33;3.03;;;;;;;;;;4966869;28;20763;-65
2022/11/20 05:51:55;;;;;;;3.57;3.23;;;;;;;;;;4965462;28;20236;-63
2022/11/20 05:54:23;;;;;;;3.17;2.87;;;;;;;;;;4967933;28;20246;-62
2022/11/20 05:56:50;;;;;;;4.33;3.20;;;;;;;;;;4985889;28;20582;-64
2022/11/20 05:59:17;;;;;;;3.67;3.37;;;;;;;;;;4977132;28;20418;-65
2022/11/20 06:01:45;;;;;;;4.67;3.90;;;;;;;;;;4968979;28;20231;-63
2022/11/20 06:04:12;;;;;;;4.20;3.80;;;;;;;;;;4962013;28;20299;-63
2022/11/20 06:06:40;;;;;;;6.40;4.07;;;;;;;;;;4963136;28;20212;-64
2022/11/20 06:09:08;;;;;;;5.00;4.50;;;;;;;;;;4959049;28;20208;-64
2022/11/20 06:11:35;;;;;;;6.53;4.10;;;;;;;;;;4964236;28;20307;-63
2022/11/20 06:14:03;;;;;;;4.97;3.70;;;;;;;;;;4969395;28;20212;-64
2022/11/20 06:16:30;;;;;;;4.60;4.10;;;;;;;;;;4960412;28;20281;-62
2022/11/20 06:18:57;;;;;;;3.97;3.53;;;;;;;;;;4963282;28;20306;-63
2022/11/20 06:21:25;;;;;;;4.17;3.77;;;;;;;;;;4963386;28;20245;-64
2022/11/20 06:23:53;;;;;;;4.57;3.97;;;;;;;;;;4979132;28;21098;-64
2022/11/20 06:26:25;;;;;;;3.87;3.47;;;;;;;;;;4979537;28;20303;-64
2022/11/20 06:28:53;;;;;;;3.67;3.30;;;;;;;;;;4993616;28;20710;-64
2022/11/20 06:31:22;;;;;;;4.23;3.50;;;;;;;;;;4975480;28;20222;-64
2022/11/20 06:33:49;;;;;;;5.37;3.80;;;;;;;;;;4971681;28;20739;-64
2022/11/20 06:36:20;;;;;;;5.23;3.70;;;;;;;;;;4956704;28;20208;-63
2022/11/20 06:38:48;;;;;;;6.57;4.47;;;;;;;;;;4955826;28;20211;-64
2022/11/20 06:41:16;;;;;;;4.90;4.50;;;;;;;;;;4954995;28;20242;-64
2022/11/20 06:43:44;;;;;;;4.93;4.43;;;;;;;;;;4979087;28;20203;-64
2022/11/20 06:46:12;;;;;;;6.20;4.47;;;;;;;;;;4953099;28;20219;-62
2022/11/20 06:48:40;;;;;;;5.57;4.97;;;;;;;;;;4958936;28;20299;-64
2022/11/20 06:51:08;;;;;;;6.27;4.47;;;;;;;;;;4965198;28;20250;-64
2022/11/20 06:53:36;;;;;;;5.57;4.83;;;;;;;;;;4974918;28;20292;-64
2022/11/20 06:56:03;;;;;;;6.57;5.07;;;;;;;;;;4972673;28;20214;-64
2022/11/20 06:58:31;;;;;;;6.63;5.23;;;;;;;;;;4972733;28;20211;-64
2022/11/20 07:01:03;;;;;;;6.07;5.37;;;;;;;;;;4981234;28;20263;-63
2022/11/20 07:03:30;;;;;;;6.43;5.57;;;;;;;;;;4977569;28;20223;-64
2022/11/20 07:05:58;;;;;;;5.83;5.23;;;;;;;;;;4963685;28;20859;-64
2022/11/20 07:08:26;;;;;;;6.73;5.50;;;;;;;;;;4959419;28;20328;-64
2022/11/20 07:10:53;;;;;;;7.53;5.00;;;;;;;;;;4971328;28;20302;-62
2022/11/20 07:13:20;;;;;;;5.93;5.20;;;;;;;;;;4960349;28;20394;-63
2022/11/20 07:15:48;;;;;;;5.77;5.17;;;;;;;;;;4948608;28;20335;-62
2022/11/20 07:18:15;;;;;;;6.40;4.90;;;;;;;;;;4969139;28;20212;-63
2022/11/20 07:20:42;;;;;;;4.80;4.27;;;;;;;;;;4955674;28;20199;-62
2022/11/20 07:23:10;;;;;;;5.40;4.90;;;;;;;;;;4955442;28;20234;-62
2022/11/20 07:25:37;;;;;;;5.17;4.30;;;;;;;;;;4949447;28;20204;-63
2022/11/20 07:28:05;;;;;;;5.00;4.50;;;;;;;;;;4954013;28;20327;-64
2022/11/20 07:30:32;;;;;;;4.70;4.30;;;;;;;;;;4950619;28;20608;-63
2022/11/20 07:32:59;;;;;;;6.93;5.03;;;;;;;;;;4968526;28;20342;-62
2022/11/20 07:35:27;;;;;;;7.90;6.27;;;;;;;;;;4960798;28;20321;-63
2022/11/20 07:37:54;;;;;;;5.20;4.70;;;;;;;;;;4961411;28;20219;-64
2022/11/20 07:40:22;;;;;;;4.97;4.40;;;;;;;;;;4973210;28;20236;-64
2022/11/20 07:42:53;;;;;;;4.63;4.13;;;;;;;;;;4964912;28;20233;-63
2022/11/20 07:45:21;;;;;;;5.53;4.13;;;;;;;;;;4965613;28;20247;-63
2022/11/20 07:47:48;;;;;;;4.33;3.90;;;;;;;;;;4966043;28;20210;-64
2022/11/20 07:50:16;;;;;;;4.80;3.80;;;;;;;;;;4982392;28;20306;-64
2022/11/20 07:52:44;;;;;;;6.07;4.43;;;;;;;;;;4964482;28;20237;-64
2022/11/20 07:55:11;;;;;;;6.73;6.13;;;;;;;;;;4960983;28;20855;-64
2022/11/20 07:57:38;;;;;;;4.57;4.17;;;;;;;;;;4953342;28;20338;-64
2022/11/20 08:00:10;;;;;;;5.03;4.60;;;;;;;;;;4961372;28;20211;-64
2022/11/20 08:02:41;;;;;;;14.43;11.90;;;;;;;;;;4964888;28;20369;-64
2022/11/20 08:05:09;;;;;;;9.67;8.53;;;;;;;;;;4984715;28;20298;-64
2022/11/20 08:07:40;;;;;;;6.73;6.13;;;;;;;;;;4981436;28;20223;-63
2022/11/20 08:10:08;;;;;;;4.20;3.80;;;;;;;;;;4969490;28;20286;-64
2022/11/20 08:15:22;;;;;;;3.63;3.30;;;;;;;;;;4994366;28;20302;-64
2022/11/20 08:17:50;;;;;;;3.00;2.80;;;;;;;;;;4972766;28;20306;-62
2022/11/20 08:20:37;;;;;;;3.40;3.10;;;;;;;;;;4978615;28;20203;-63
2022/11/20 08:23:06;;;;;;;3.60;3.00;;;;;;;;;;4990774;28;20696;-64
2022/11/20 08:25:34;;;;;;;3.27;2.97;;;;;;;;;;4992651;28;20658;-63
2022/11/20 08:28:02;;;;;;;4.20;3.50;;;;;;;;;;4990284;28;20204;-62
2022/11/20 08:30:45;;;;;;;4.47;3.73;;;;;;;;;;4994736;28;20579;-63
2022/11/20 08:33:13;;;;;;;4.43;4.00;;;;;;;;;;4983010;28;20339;-64
2022/11/20 08:35:41;;;;;;;8.37;5.73;;;;;;;;;;4996154;28;20299;-63
2022/11/20 08:38:09;;;;;;;4.70;4.20;;;;;;;;;;4983597;28;20940;-64
2022/11/20 08:40:39;;;;;;;5.07;3.90;;;;;;;;;;4986302;28;20212;-62
2022/11/20 08:43:07;;;;;;;4.23;3.93;;;;;;;;;;4991797;28;20327;-63
2022/11/20 08:45:34;;;;;;;4.27;3.70;;;;;;;;;;4982985;28;20215;-63
2022/11/20 08:48:02;;;;;;;4.47;4.07;;;;;;;;;;4986163;28;20257;-62
2022/11/20 08:50:31;;;;;;;6.10;3.77;;;;;;;;;;4978276;28;20283;-63
2022/11/20 08:53:06;;;;;;;4.27;3.90;;;;;;;;;;4973448;28;20231;-62
2022/11/20 08:55:35;;;;;;;4.20;3.73;;;;;;;;;;4971523;28;20210;-62
2022/11/20 08:58:07;;;;;;;4.57;4.17;;;;;;;;;;4975592;28;20208;-61
2022/11/20 09:00:34;;;;;;;4.47;4.13;;;;;;;;;;4997786;28;20301;-63
2022/11/20 09:03:02;;;;;;;4.67;4.07;;;;;;;;;;4974459;28;20235;-63
2022/11/20 09:05:29;;;;;;;5.00;4.60;;;;;;;;;;4987098;28;20208;-63
2022/11/20 09:07:57;;;;;;;4.00;3.70;;;;;;;;;;4980720;28;20208;-62
2022/11/20 09:10:25;;;;;;;5.83;5.33;;;;;;;;;;4983047;28;20303;-63
2022/11/20 09:12:52;;;;;;;5.43;4.93;;;;;;;;;;4975706;28;20341;-63
2022/11/20 09:15:20;;;;;;;4.10;3.80;;;;;;;;;;4980320;28;20227;-63
2022/11/20 09:17:51;;;;;;;4.37;3.97;;;;;;;;;;4969503;28;20311;-64
2022/11/20 09:20:19;;;;;;;5.57;5.00;;;;;;;;;;4964424;28;20354;-63
2022/11/20 09:22:47;;;;;;;6.00;5.40;;;;;;;;;;4969743;28;20235;-63
2022/11/20 09:25:14;;;;;;;4.03;3.33;;;;;;;;;;4960472;28;20298;-62
2022/11/20 09:27:43;;;;;;;4.40;4.00;;;;;;;;;;4968776;28;20612;-64
2022/11/20 09:30:11;;;;;;;6.47;5.87;;;;;;;;;;4976313;28;20278;-63
2022/11/20 09:32:42;;;;;;;9.90;8.90;;;;;;;;;;4976967;28;20333;-64
2022/11/20 09:35:10;;;;;;;5.37;4.93;;;;;;;;;;4980917;28;20235;-62
2022/11/20 09:37:38;;;;;;;5.73;5.20;;;;;;;;;;4978826;28;20207;-66
2022/11/20 09:40:05;;;;;;;4.33;3.93;;;;;;;;;;4979365;28;20265;-63
2022/11/20 09:42:46;;;;;;;4.50;4.10;;;;;;;;;;4980169;28;20725;-62
2022/11/20 09:45:24;;;;;;;3.77;3.40;;;;;;;;;;4982021;28;20243;-62
2022/11/20 09:47:54;;;;;;;4.60;3.87;;;;;;;;;;4979406;28;20346;-63
2022/11/20 09:50:32;;;;;;;4.63;3.10;;;;;;;;;;4980223;28;20793;-62
2022/11/20 09:53:09;;;;;;;3.27;2.97;;;;;;;;;;4984380;28;20285;-62
2022/11/20 09:55:36;;;;;;;2.77;2.57;;;;;;;;;;4997239;28;20295;-63
2022/11/20 09:58:07;;;;;;;4.30;3.90;;;;;;;;;;4983216;28;20236;-62
2022/11/20 10:00:36;;;;;;;4.30;3.77;;;;;;;;;;4980435;28;20235;-62
2022/11/20 10:03:13;;;;;;;3.63;3.30;;;;;;;;;;4998797;28;20227;-63
2022/11/20 10:05:49;;;;;;;3.17;2.97;;;;;;;;;;4998665;28;20201;-62
2022/11/20 10:08:22;;;;;;;3.20;3.00;;;;;;;;;;4983184;28;20298;-62
2022/11/20 10:11:02;;;;;;;4.03;3.10;;;;;;;;;;4982335;28;20203;-63
2022/11/20 10:13:30;;;;;;;3.07;2.87;;;;;;;;;;4978103;28;20231;-63
2022/11/20 10:16:17;;;;;;;3.30;3.00;;;;;;;;;;4983495;28;20207;-63
2022/11/20 10:19:03;;;;;;;2.77;2.57;;;;;;;;;;4999273;28;20241;-62
2022/11/20 10:21:49;;;;;;;2.67;2.47;;;;;;;;;;4985907;28;20254;-64
2022/11/20 10:24:27;;;;;;;2.80;2.60;;;;;;;;;;4979999;28;20211;-64
2022/11/20 10:27:20;;;;;;;5.73;3.53;;;;;;;;;;4988976;28;20235;-64
2022/11/20 10:29:52;;;;;;;3.30;3.10;;;;;;;;;;4976664;28;20286;-61
2022/11/20 10:32:20;;;;;;;4.73;4.27;;;;;;;;;;5001076;28;20647;-62
2022/11/20 10:34:48;;;;;;;2.80;2.50;;;;;;;;;;4980132;28;20216;-63
2022/11/20 10:37:18;;;;;;;2.43;2.23;;;;;;;;;;4985576;28;20292;-62
2022/11/20 10:39:59;;;;;;;1.87;1.77;;;;;;;;;;4977847;28;20644;-63
2022/11/20 10:42:32;;;;;;;2.70;2.50;;;;;;;;;;4997722;28;20266;-64
2022/11/20 10:45:03;;;;;;;1.40;1.33;;;;;;;;;;4982436;28;20295;-62
2022/11/20 10:47:33;;;;;;;2.10;1.90;;;;;;;;;;4978810;28;20208;-62
2022/11/20 10:50:11;;;;;;;1.27;1.27;;;;;;;;;;5054337;27;20640;-63
2022/11/20 10:52:52;;;;;;;2.10;2.00;;;;;;;;;;5060222;28;20337;-64
2022/11/20 10:55:55;;;;;;;3.20;2.30;;;;;;;;;;5031695;28;20206;-63
2022/11/20 10:58:23;;;;;;;2.00;1.90;;;;;;;;;;4979053;28;20207;-63
2022/11/20 11:00:51;;;;;;;2.20;1.70;;;;;;;;;;5017669;28;20260;-63
2022/11/20 11:03:27;;;;;;;1.00;1.00;;;;;;;;;;5025497;28;20310;-63
2022/11/20 11:06:04;;;;;;;1.10;1.10;;;;;;;;;;5034458;28;20226;-63
2022/11/20 11:08:35;;;;;;;1.20;1.20;;;;;;;;;;5035917;28;20301;-62
2022/11/20 11:11:23;;;;;;;1.40;1.30;;;;;;;;;;5025214;28;20198;-63
2022/11/20 11:13:51;;;;;;;1.20;1.20;;;;;;;;;;5035394;28;20286;-62
2022/11/20 11:16:23;;;;;;;1.40;1.30;;;;;;;;;;5028261;28;20203;-63
2022/11/20 11:18:51;;;;;;;1.37;1.37;;;;;;;;;;5032212;28;20343;-64
2022/11/20 11:21:25;;;;;;;1.90;1.80;;;;;;;;;;5038012;28;20230;-63
2022/11/20 11:24:04;;;;;;;1.87;1.77;;;;;;;;;;5030858;28;20249;-63
2022/11/20 11:27:06;;;;;;;1.63;1.30;;;;;;;;;;5031072;28;20671;-63
2022/11/20 11:29:38;;;;;;;1.20;1.20;;;;;;;;;;5035009;28;20603;-63
2022/11/20 11:32:13;;;;;;;1.23;1.23;;;;;;;;;;5034337;28;20222;-63
2022/11/20 11:34:40;;;;;;;1.30;1.30;;;;;;;;;;5035217;28;20230;-62
2022/11/20 11:37:14;;;;;;;3.27;3.07;;;;;;;;;;5039832;28;20237;-63
2022/11/20 11:39:42;;;;;;;2.40;2.23;;;;;;;;;;5028314;28;20262;-63
2022/11/20 11:42:13;;;;;;;1.47;1.37;;;;;;;;;;5034737;28;20505;-63
2022/11/20 11:47:38;;;;;;;1.20;1.20;;;;;;;;;;5027511;28;20242;-63
2022/11/20 11:50:15;;;;;;;1.10;1.10;;;;;;;;;;5019885;28;20885;-63
2022/11/20 11:52:49;;;;;;;1.67;1.57;;;;;;;;;;5026593;28;20296;-63
2022/11/20 11:55:25;;;;;;;10.43;7.83;;;;;;;;;;5036147;28;20668;-62
2022/11/20 11:58:10;;;;;;;5.40;4.90;;;;;;;;;;5034474;28;20230;-63
2022/11/20 12:00:40;;;;;;;6.53;5.47;;;;;;;;;;5008597;28;20218;-63
2022/11/20 12:03:18;;;;;;;3.03;2.83;;;;;;;;;;5006961;28;20775;-63
2022/11/20 12:05:48;;;;;;;5.17;4.67;;;;;;;;;;5018370;28;20215;-63
2022/11/20 12:08:32;;;;;;;10.13;8.20;;;;;;;;;;5017372;28;20227;-65
2022/11/20 12:11:20;;;;;;;2.63;2.43;;;;;;;;;;5019054;28;20310;-64
2022/11/20 12:13:49;;;;;;;4.43;3.90;;;;;;;;;;5028569;28;20293;-63
2022/11/20 12:16:18;;;;;;;2.97;2.77;;;;;;;;;;5027223;28;20670;-63
2022/11/20 12:18:47;;;;;;;3.50;3.20;;;;;;;;;;5022865;28;20206;-63
2022/11/20 12:21:24;;;;;;;1.87;1.77;;;;;;;;;;5021051;28;20332;-63
2022/11/20 12:24:11;;;;;;;1.50;1.40;;;;;;;;;;5018389;28;20301;-62
2022/11/20 12:26:51;;;;;;;2.47;2.37;;;;;;;;;;5024846;28;20623;-63
2022/11/20 12:29:21;;;;;;;1.83;1.73;;;;;;;;;;5010519;28;20227;-63
2022/11/20 12:31:49;;;;;;;1.57;1.47;;;;;;;;;;5027222;28;20312;-63
2022/11/20 12:34:23;;;;;;;1.33;1.17;;;;;;;;;;5021855;28;20233;-63
2022/11/20 12:36:54;;;;;;;1.63;1.33;;;;;;;;;;5024621;28;20712;-63
2022/11/20 12:39:24;;;;;;;1.17;1.10;;;;;;;;;;5028069;28;20737;-64
2022/11/20 12:45:15;;;;;;;1.93;1.40;;;;;;;;;;5026560;28;20238;-63
2022/11/20 12:48:01;;;;;;;1.53;1.43;;;;;;;;;;5013771;28;20650;-63
2022/11/20 12:50:32;;;;;;;2.33;1.30;;;;;;;;;;5027457;28;20238;-64
2022/11/20 12:53:26;;;;;;;1.53;1.23;;;;;;;;;;5032366;28;20316;-64
2022/11/20 12:56:01;;;;;;;1.60;1.50;;;;;;;;;;5029471;28;20607;-62
2022/11/20 12:58:34;;;;;;;1.30;1.20;;;;;;;;;;5025333;28;20293;-61
2022/11/20 13:01:39;;;;;;;1.30;1.27;;;;;;;;;;5017761;28;20348;-64
2022/11/20 13:04:01;;;;;;;1.20;1.10;;;;;;;;;;4999692;28;20210;-65
2022/11/20 13:06:35;;;;;;;1.00;1.00;;;;;;;;;;5007878;28;20199;-63
2022/11/20 13:09:03;;;;;;;1.57;1.00;;;;;;;;;;5006050;28;20313;-62
2022/11/20 13:11:44;;;;;;;1.60;1.50;;;;;;;;;;4999207;28;20600;-65
2022/11/20 13:14:15;;;;;;;3.47;1.30;;;;;;;;;;5001570;28;20211;-62
2022/11/20 13:16:50;;;;;;;1.83;1.40;;;;;;;;;;5005223;28;20230;-63
2022/11/20 13:19:18;;;;;;;1.83;1.10;;;;;;;;;;5002176;28;20680;-62
2022/11/20 13:21:46;;;;;;;2.00;1.77;;;;;;;;;;5004403;28;20242;-63
2022/11/20 13:24:22;;;;;;;1.30;1.30;;;;;;;;;;5001903;28;20824;-63
2022/11/20 13:27:09;;;;;;;1.60;1.50;;;;;;;;;;5010426;28;20620;-63
2022/11/20 13:29:37;;;;;;;2.30;1.20;;;;;;;;;;5014507;28;20337;-64
2022/11/20 13:32:16;;;;;;;1.20;1.10;;;;;;;;;;5012091;28;20333;-65
2022/11/20 13:34:54;;;;;;;1.33;1.23;;;;;;;;;;5007121;28;20207;-63
2022/11/20 13:37:30;;;;;;;1.27;1.17;;;;;;;;;;5000158;28;20207;-64
2022/11/20 13:40:06;;;;;;;1.50;1.40;;;;;;;;;;5012575;28;21520;-63
2022/11/20 13:42:38;;;;;;;2.63;1.23;;;;;;;;;;5015936;28;20231;-64
2022/11/20 13:45:26;;;;;;;1.10;1.10;;;;;;;;;;5005023;28;20262;-63
2022/11/20 13:47:54;;;;;;;1.33;1.23;;;;;;;;;;5020750;28;20294;-63
2022/11/20 13:50:27;;;;;;;1.37;1.13;;;;;;;;;;5013540;28;20219;-63
2022/11/20 13:53:23;;;;;;;1.00;1.00;;;;;;;;;;5018748;28;20222;-63
2022/11/20 13:56:02;;;;;;;1.10;1.00;;;;;;;;;;5007701;28;20302;-62
2022/11/20 13:58:32;;;;;;;1.10;1.00;;;;;;;;;;5017205;28;20211;-63
2022/11/20 14:01:35;;;;;;;1.00;1.00;;;;;;;;;;5013022;28;20217;-63
2022/11/20 14:04:11;;;;;;;1.33;1.23;;;;;;;;;;4957766;28;20219;-63
2022/11/20 14:06:42;;;;;;;0.97;0.97;;;;;;;;;;5012984;28;20210;-64
2022/11/20 14:09:24;;;;;;;1.07;1.07;;;;;;;;;;5019221;28;20231;-64
2022/11/20 14:11:52;;;;;;;1.90;1.20;;;;;;;;;;5013886;28;20855;-63
2022/11/20 14:14:20;;;;;;;1.10;1.10;;;;;;;;;;5015210;28;20310;-63
2022/11/20 14:16:50;;;;;;;1.10;1.00;;;;;;;;;;5014784;28;20301;-63
2022/11/20 14:19:20;;;;;;;1.23;1.13;;;;;;;;;;5010400;28;20207;-63
2022/11/20 14:21:48;;;;;;;1.10;1.10;;;;;;;;;;5009506;28;20693;-63
2022/11/20 14:24:19;;;;;;;1.00;1.00;;;;;;;;;;5007378;28;20816;-62
2022/11/20 14:26:48;;;;;;;2.00;1.10;;;;;;;;;;5005405;28;20210;-61
2022/11/20 14:29:16;;;;;;;2.43;1.33;;;;;;;;;;5012117;28;20231;-63
2022/11/20 14:31:45;;;;;;;1.20;1.10;;;;;;;;;;5020800;28;20329;-63
2022/11/20 14:34:22;;;;;;;5.80;4.17;;;;;;;;;;5020273;28;20441;-63
2022/11/20 14:36:56;;;;;;;2.30;2.10;;;;;;;;;;5016487;28;20808;-63
2022/11/20 14:39:27;;;;;;;1.90;1.80;;;;;;;;;;5014785;28;20303;-62
2022/11/20 14:41:54;;;;;;;2.50;1.87;;;;;;;;;;5015183;28;20250;-65
2022/11/20 14:44:25;;;;;;;1.60;1.50;;;;;;;;;;5020405;28;20289;-62
2022/11/20 14:46:53;;;;;;;1.73;1.63;;;;;;;;;;5013618;28;20211;-64
2022/11/20 14:49:20;;;;;;;2.30;1.40;;;;;;;;;;5011849;28;20353;-63
2022/11/20 14:51:58;;;;;;;1.47;1.23;;;;;;;;;;5019232;28;20230;-63
2022/11/20 14:54:26;;;;;;;1.10;1.10;;;;;;;;;;5012273;28;20203;-63
2022/11/20 14:56:58;;;;;;;2.23;1.53;;;;;;;;;;5012098;28;20314;-62
2022/11/20 14:59:26;;;;;;;1.60;1.50;;;;;;;;;;5008007;28;20326;-65
2022/11/20 15:02:02;;;;;;;2.07;1.40;;;;;;;;;;5014570;28;20251;-63
2022/11/20 15:04:29;;;;;;;4.13;3.50;;;;;;;;;;5008118;28;20278;-63
2022/11/20 15:06:57;;;;;;;2.87;1.97;;;;;;;;;;5009184;28;22499;-63
2022/11/20 15:09:25;;;;;;;3.73;2.30;;;;;;;;;;5009162;28;20330;-64
2022/11/20 15:11:55;;;;;;;1.50;1.40;;;;;;;;;;5002473;28;20321;-63
2022/11/20 15:14:23;;;;;;;2.00;1.90;;;;;;;;;;5013295;28;20286;-64